Time;durP1;ratioP1;P1;durP2;ratioP2;P2;SDS_P1;SDS_P2;PMS_P1;PMS_P2;Temp;Humidity;BMP_temperature;BMP_pressure;BME280_temperature;BME280_humidity;BME280_pressure;Samples;Min_cycle;Max_cycle;Signal;HPM_P1;HPM_P2
2023/04/05 00:02:12;;;;;;;6.67;4.40;;;2.00;99.20;;;;;;5095710;28;20204;-56
2023/04/05 00:04:49;;;;;;;5.63;4.37;;;2.00;99.20;;;;;;5095361;28;20269;-56
2023/04/05 00:07:16;;;;;;;8.43;4.60;;;2.00;99.30;;;;;;5095326;28;20310;-56
2023/04/05 00:09:43;;;;;;;5.13;4.03;;;1.90;99.40;;;;;;5095419;28;20216;-56
2023/04/05 00:12:09;;;;;;;8.00;4.20;;;1.90;99.40;;;;;;5095243;28;20230;-56
2023/04/05 00:14:36;;;;;;;8.03;4.40;;;2.00;99.40;;;;;;5094937;28;20227;-57
2023/04/05 00:17:03;;;;;;;5.77;4.37;;;2.00;99.30;;;;;;5095266;28;20229;-56
2023/04/05 00:19:32;;;;;;;6.57;4.77;;;2.00;99.20;;;;;;5095416;28;20206;-55
2023/04/05 00:22:00;;;;;;;7.07;4.50;;;2.00;99.20;;;;;;5095110;28;20204;-56
2023/04/05 00:24:28;;;;;;;6.03;4.53;;;2.00;99.20;;;;;;5095053;28;20588;-56
2023/04/05 00:26:55;;;;;;;10.57;4.70;;;1.90;99.40;;;;;;5094818;28;20322;-55
2023/04/05 00:29:22;;;;;;;6.77;4.37;;;1.90;99.40;;;;;;5094820;28;20305;-55
2023/04/05 00:31:49;;;;;;;6.07;4.40;;;1.90;99.50;;;;;;5094652;28;20621;-55
2023/04/05 00:34:16;;;;;;;11.00;4.97;;;1.80;99.60;;;;;;5094637;28;20208;-55
2023/04/05 00:36:43;;;;;;;6.63;4.60;;;1.80;99.90;;;;;;5094912;28;20266;-55
2023/04/05 00:39:11;;;;;;;7.90;4.67;;;1.70;99.90;;;;;;5094922;28;20212;-55
2023/04/05 00:41:38;;;;;;;4.80;4.10;;;1.70;99.90;;;;;;5094875;28;20212;-55
2023/04/05 00:44:06;;;;;;;6.00;4.07;;;1.70;99.90;;;;;;5094373;28;20240;-56
2023/04/05 00:46:35;;;;;;;7.73;4.70;;;1.70;99.90;;;;;;5093956;28;20273;-55
2023/04/05 00:49:02;;;;;;;8.07;5.00;;;1.70;99.90;;;;;;5093605;28;20204;-55
2023/04/05 00:51:30;;;;;;;7.63;4.00;;;1.70;99.90;;;;;;5093915;28;20559;-55
2023/04/05 00:53:57;;;;;;;6.60;4.13;;;1.70;99.90;;;;;;5093914;28;20208;-55
2023/04/05 00:56:27;;;;;;;9.30;4.60;;;1.80;99.90;;;;;;5093322;28;20212;-55
2023/04/05 00:58:53;;;;;;;5.63;4.03;;;1.70;99.90;;;;;;5094260;28;20304;-56
2023/04/05 01:01:22;;;;;;;5.50;4.00;;;1.70;99.90;;;;;;5094219;28;20208;-55
2023/04/05 01:03:53;;;;;;;6.17;4.10;;;1.70;99.90;;;;;;5094371;28;20258;-56
2023/04/05 01:06:36;;;;;;;6.50;3.70;;;1.60;99.90;;;;;;5093590;28;20204;-56
2023/04/05 01:09:12;;;;;;;6.73;4.00;;;1.60;99.90;;;;;;5093462;28;20632;-56
2023/04/05 01:11:42;;;;;;;4.63;3.73;;;1.50;99.90;;;;;;5093722;28;20324;-55
2023/04/05 01:14:09;;;;;;;5.17;3.73;;;1.50;99.90;;;;;;5093497;28;20208;-56
2023/04/05 01:16:35;;;;;;;4.90;3.87;;;1.50;99.90;;;;;;5093629;28;20211;-55
2023/04/05 01:19:03;;;;;;;6.13;3.63;;;1.50;99.90;;;;;;5093289;28;20204;-55
2023/04/05 01:21:57;;;;;;;6.00;3.73;;;1.40;99.90;;;;;;5093255;28;20206;-55
2023/04/05 01:24:37;;;;;;;5.27;3.90;;;1.40;99.90;;;;;;5092952;28;20348;-56
2023/04/05 01:27:10;;;;;;;6.00;3.77;;;1.50;99.90;;;;;;5093684;28;20322;-55
2023/04/05 01:29:48;;;;;;;5.93;3.70;;;1.50;99.90;;;;;;5093386;28;20242;-55
2023/04/05 01:32:48;;;;;;;6.70;4.23;;;1.50;99.90;;;;;;5093618;28;20208;-55
2023/04/05 01:35:21;;;;;;;7.90;3.83;;;1.60;99.90;;;;;;5092764;28;20211;-55
2023/04/05 01:37:52;;;;;;;7.83;3.77;;;1.60;99.90;;;;;;5093235;28;20363;-55
2023/04/05 01:40:20;;;;;;;5.40;3.87;;;1.60;99.90;;;;;;5092899;28;20200;-55
2023/04/05 01:42:46;;;;;;;5.47;3.50;;;1.70;99.90;;;;;;5093208;28;20208;-55
2023/04/05 01:45:14;;;;;;;5.23;3.30;;;1.70;99.90;;;;;;5093261;28;20207;-55
2023/04/05 01:47:41;;;;;;;5.67;3.80;;;1.80;99.90;;;;;;5092828;28;20227;-55
2023/04/05 01:50:09;;;;;;;6.03;4.23;;;1.80;99.80;;;;;;5092959;28;20231;-55
2023/04/05 01:52:36;;;;;;;6.80;4.13;;;1.80;99.90;;;;;;5092994;28;20287;-55
2023/04/05 01:55:03;;;;;;;5.13;3.40;;;1.80;99.90;;;;;;5092932;28;20371;-55
2023/04/05 01:57:29;;;;;;;5.40;3.70;;;1.80;99.70;;;;;;5092775;28;20644;-55
2023/04/05 01:59:56;;;;;;;6.00;3.87;;;1.80;99.90;;;;;;5092594;28;20200;-55
2023/04/05 02:02:24;;;;;;;8.17;3.60;;;1.90;99.90;;;;;;5092637;28;20210;-55
2023/04/05 02:04:51;;;;;;;7.33;3.47;;;1.80;99.90;;;;;;5092847;28;20667;-55
2023/04/05 02:07:18;;;;;;;5.20;3.87;;;1.80;99.80;;;;;;5092660;28;20308;-55
2023/04/05 02:09:45;;;;;;;5.60;3.83;;;1.80;99.80;;;;;;5092786;28;20627;-55
2023/04/05 02:12:11;;;;;;;4.53;3.80;;;1.90;99.70;;;;;;5093064;28;20273;-55
2023/04/05 02:14:39;;;;;;;6.43;3.77;;;1.90;99.80;;;;;;5093038;28;20231;-56
2023/04/05 02:17:05;;;;;;;5.37;4.33;;;1.90;99.90;;;;;;5093261;28;20232;-56
2023/04/05 02:19:39;;;;;;;5.57;4.07;;;1.90;99.90;;;;;;5093099;28;20206;-55
2023/04/05 02:22:06;;;;;;;5.00;3.80;;;1.90;99.90;;;;;;5093450;28;20650;-55
2023/04/05 02:24:33;;;;;;;7.23;4.10;;;1.90;99.90;;;;;;5092810;28;20231;-55
2023/04/05 02:27:00;;;;;;;6.30;3.60;;;1.90;99.90;;;;;;5092397;28;20242;-56
2023/04/05 02:29:26;;;;;;;4.90;3.87;;;1.90;99.90;;;;;;5093455;28;20195;-55
2023/04/05 02:31:53;;;;;;;8.03;4.07;;;1.90;99.90;;;;;;5092995;28;20232;-55
2023/04/05 02:34:21;;;;;;;7.73;4.30;;;1.80;99.90;;;;;;5092939;28;20204;-55
2023/04/05 02:36:50;;;;;;;4.87;4.20;;;1.80;99.90;;;;;;5092917;28;20741;-55
2023/04/05 02:39:17;;;;;;;5.57;3.70;;;1.80;99.90;;;;;;5092689;28;20200;-55
2023/04/05 02:41:44;;;;;;;5.93;4.40;;;1.80;99.90;;;;;;5092851;28;20208;-55
2023/04/05 02:44:11;;;;;;;5.83;3.73;;;1.80;99.90;;;;;;5092750;28;20747;-56
2023/04/05 02:46:37;;;;;;;5.80;3.63;;;1.80;99.90;;;;;;5092917;28;20211;-55
2023/04/05 02:49:04;;;;;;;4.60;3.63;;;1.80;99.90;;;;;;5092441;28;20633;-55
2023/04/05 02:51:33;;;;;;;5.23;3.73;;;1.70;99.90;;;;;;5092779;28;20224;-55
2023/04/05 02:54:01;;;;;;;7.13;4.33;;;1.70;99.90;;;;;;5092573;28;20240;-55
2023/04/05 02:56:28;;;;;;;4.93;3.63;;;1.70;99.90;;;;;;5092021;28;20238;-54
2023/04/05 02:58:55;;;;;;;8.47;4.60;;;1.70;99.90;;;;;;5093314;28;20582;-54
2023/04/05 03:01:22;;;;;;;7.63;4.43;;;1.60;99.90;;;;;;5092733;28;20207;-55
2023/04/05 03:03:49;;;;;;;9.40;4.87;;;1.60;99.90;;;;;;5092597;28;20216;-55
2023/04/05 03:06:17;;;;;;;8.30;4.70;;;1.50;99.90;;;;;;5092726;28;20257;-55
2023/04/05 03:08:45;;;;;;;8.10;5.27;;;1.50;99.90;;;;;;5092492;28;20256;-55
2023/04/05 03:11:14;;;;;;;48.57;34.27;;;1.50;99.90;;;;;;5092715;28;20579;-55
2023/04/05 03:13:41;;;;;;;10.93;7.00;;;1.50;99.90;;;;;;5095848;28;20208;-55
2023/04/05 03:16:08;;;;;;;4.63;3.93;;;1.40;99.90;;;;;;5095553;28;20208;-55
2023/04/05 03:18:34;;;;;;;5.70;4.10;;;1.50;99.90;;;;;;5096267;28;20248;-55
2023/04/05 03:21:03;;;;;;;5.63;3.80;;;1.40;99.90;;;;;;5095738;28;20548;-55
2023/04/05 03:23:31;;;;;;;6.03;4.40;;;1.40;99.90;;;;;;5095937;28;20247;-55
2023/04/05 03:25:59;;;;;;;5.97;4.33;;;1.30;99.90;;;;;;5095755;28;20204;-54
2023/04/05 03:28:28;;;;;;;6.70;3.80;;;1.30;99.90;;;;;;5095716;28;20716;-55
2023/04/05 03:30:55;;;;;;;5.47;4.20;;;1.30;99.90;;;;;;5095781;28;20266;-55
2023/04/05 03:33:21;;;;;;;6.83;4.30;;;1.30;99.90;;;;;;5095971;28;20204;-55
2023/04/05 03:35:48;;;;;;;5.00;3.90;;;1.30;99.90;;;;;;5095378;28;20200;-55
2023/04/05 03:38:15;;;;;;;5.47;3.80;;;1.40;99.90;;;;;;5095774;28;20228;-55
2023/04/05 03:40:42;;;;;;;5.37;3.87;;;1.40;99.90;;;;;;5095624;28;20258;-55
2023/04/05 03:43:09;;;;;;;6.37;4.07;;;1.40;99.90;;;;;;5095534;28;20212;-56
2023/04/05 03:45:37;;;;;;;5.83;3.73;;;1.40;99.90;;;;;;5095505;28;20200;-56
2023/04/05 03:48:05;;;;;;;9.30;5.90;;;1.30;99.90;;;;;;5095982;28;20231;-56
2023/04/05 03:50:32;;;;;;;7.67;4.97;;;1.30;99.90;;;;;;5095536;28;20608;-56
2023/04/05 03:52:58;;;;;;;7.20;4.97;;;1.20;99.90;;;;;;5095911;28;20212;-55
2023/04/05 03:55:25;;;;;;;7.27;4.93;;;1.20;99.90;;;;;;5095309;28;20204;-56
2023/04/05 03:57:53;;;;;;;10.33;5.77;;;1.10;99.90;;;;;;5095349;28;20229;-56
2023/04/05 04:00:22;;;;;;;9.23;5.30;;;1.00;99.90;;;;;;5095192;28;20236;-55
2023/04/05 04:02:52;;;;;;;7.63;5.53;;;1.00;99.90;;;;;;5095681;28;20212;-56
2023/04/05 04:05:19;;;;;;;8.87;5.40;;;1.00;99.90;;;;;;5095443;28;20212;-55
2023/04/05 04:07:47;;;;;;;8.00;5.17;;;0.90;99.90;;;;;;5095451;28;20269;-55
2023/04/05 04:10:16;;;;;;;6.37;4.93;;;0.80;99.90;;;;;;5095223;28;20208;-55
2023/04/05 04:12:43;;;;;;;10.83;4.93;;;0.80;99.90;;;;;;5095827;28;20208;-55
2023/04/05 04:15:11;;;;;;;6.43;4.37;;;0.80;99.90;;;;;;5095567;28;20208;-55
2023/04/05 04:17:38;;;;;;;10.33;5.47;;;0.70;99.90;;;;;;5095146;28;20281;-56
2023/04/05 04:20:09;;;;;;;10.20;4.73;;;0.70;99.90;;;;;;5094907;28;20585;-55
2023/04/05 04:22:37;;;;;;;8.07;4.63;;;0.60;99.90;;;;;;5095164;28;20299;-55
2023/04/05 04:25:08;;;;;;;7.27;5.23;;;0.60;99.90;;;;;;5093751;28;20613;-55
2023/04/05 04:27:38;;;;;;;8.67;5.20;;;0.60;99.90;;;;;;5095201;28;20260;-56
2023/04/05 04:30:09;;;;;;;6.90;5.50;;;0.50;99.90;;;;;;5095179;28;20665;-56
2023/04/05 04:32:53;;;;;;;7.00;4.93;;;0.50;99.90;;;;;;5095296;28;20691;-56
2023/04/05 04:35:23;;;;;;;6.83;5.17;;;0.40;99.90;;;;;;5094454;28;20212;-56
2023/04/05 04:37:56;;;;;;;6.33;4.97;;;0.40;99.90;;;;;;5094736;28;20232;-56
2023/04/05 04:40:24;;;;;;;7.57;4.70;;;0.30;99.90;;;;;;5094579;28;20273;-55
2023/04/05 04:42:51;;;;;;;6.10;4.73;;;0.20;99.90;;;;;;5094497;28;20200;-56
2023/04/05 04:45:19;;;;;;;6.67;4.40;;;0.20;99.90;;;;;;5094344;28;20204;-56
2023/04/05 04:47:47;;;;;;;6.53;5.17;;;0.00;99.90;;;;;;5094367;28;20708;-56
2023/04/05 04:50:18;;;;;;;8.40;5.03;;;-0.10;99.90;;;;;;5095092;28;20200;-56
2023/04/05 04:52:47;;;;;;;15.53;9.77;;;-0.10;99.90;;;;;;5094975;28;20201;-56
2023/04/05 04:55:14;;;;;;;8.73;5.23;;;-0.10;99.90;;;;;;5094953;28;20204;-56
2023/04/05 04:57:41;;;;;;;7.53;5.20;;;-0.10;99.90;;;;;;5094706;28;20575;-56
2023/04/05 05:00:11;;;;;;;6.93;4.87;;;-0.10;99.90;;;;;;5094059;28;20569;-56
2023/04/05 05:02:38;;;;;;;9.83;5.43;;;0.00;99.90;;;;;;5094650;28;20204;-56
2023/04/05 05:05:06;;;;;;;9.20;5.13;;;0.00;99.90;;;;;;5094485;28;20204;-56
2023/04/05 05:07:33;;;;;;;7.83;5.00;;;0.10;99.90;;;;;;5094325;28;20335;-56
2023/04/05 05:10:01;;;;;;;7.50;4.93;;;0.00;99.90;;;;;;5095317;28;20212;-56
2023/04/05 05:12:28;;;;;;;8.60;5.57;;;0.10;99.90;;;;;;5093911;28;20606;-56
2023/04/05 05:14:55;;;;;;;7.77;5.10;;;0.20;99.90;;;;;;5093449;28;20583;-56
2023/04/05 05:17:23;;;;;;;6.77;5.13;;;0.20;99.90;;;;;;5093967;28;20248;-56
2023/04/05 05:19:50;;;;;;;6.33;5.10;;;0.30;99.90;;;;;;5094181;28;20208;-56
2023/04/05 05:22:16;;;;;;;7.07;5.43;;;0.30;99.90;;;;;;5094096;28;20228;-56
2023/04/05 05:24:44;;;;;;;8.33;5.43;;;0.00;99.90;;;;;;5093822;28;20204;-56
2023/04/05 05:27:12;;;;;;;8.03;5.87;;;0.40;99.90;;;;;;5093782;28;20244;-56
2023/04/05 05:29:38;;;;;;;7.20;5.30;;;0.50;99.90;;;;;;5093671;28;20699;-56
2023/04/05 05:32:06;;;;;;;8.20;5.30;;;0.50;99.90;;;;;;5094159;28;20224;-56
2023/04/05 05:34:33;;;;;;;8.33;5.67;;;0.60;99.90;;;;;;5093904;28;20208;-56
2023/04/05 05:37:00;;;;;;;6.83;5.73;;;0.80;99.90;;;;;;5093835;28;20317;-56
2023/04/05 05:39:27;;;;;;;12.03;5.77;;;0.90;99.90;;;;;;5093965;28;20230;-56
2023/04/05 05:41:53;;;;;;;8.13;5.90;;;1.00;99.90;;;;;;5094023;28;20289;-56
2023/04/05 05:44:21;;;;;;;6.47;5.00;;;1.10;99.90;;;;;;5094139;28;20208;-56
2023/04/05 05:46:48;;;;;;;6.53;5.00;;;1.20;99.90;;;;;;5093497;28;20225;-56
2023/04/05 05:49:15;;;;;;;6.57;5.03;;;1.20;99.90;;;;;;5093763;28;20211;-56
2023/04/05 05:51:42;;;;;;;9.30;5.70;;;1.60;99.90;;;;;;5093406;28;20654;-56
2023/04/05 05:54:08;;;;;;;6.60;4.93;;;2.60;99.90;;;;;;5093298;28;20672;-56
2023/04/05 05:56:35;;;;;;;8.30;4.77;;;4.00;99.90;;;;;;5093977;28;20254;-56
2023/04/05 05:59:02;;;;;;;10.30;5.07;;;5.50;99.90;;;;;;5093538;28;20214;-56
2023/04/05 06:01:33;;;;;;;7.67;4.80;;;6.90;96.80;;;;;;5093578;28;20243;-56
2023/04/05 06:04:00;;;;;;;5.63;4.23;;;8.10;95.20;;;;;;5093760;28;20208;-56
2023/04/05 06:06:28;;;;;;;6.00;4.50;;;9.10;92.80;;;;;;5093398;28;20216;-56
2023/04/05 06:08:55;;;;;;;7.87;4.67;;;9.90;91.40;;;;;;5093573;28;20691;-56
2023/04/05 06:11:24;;;;;;;6.13;4.93;;;10.80;90.10;;;;;;5094042;28;20228;-57
2023/04/05 06:13:53;;;;;;;7.10;4.80;;;11.50;86.90;;;;;;5094362;28;20208;-57
2023/04/05 06:16:20;;;;;;;6.33;4.10;;;12.20;84.40;;;;;;5094187;28;20210;-57
2023/04/05 06:18:48;;;;;;;6.50;4.13;;;12.80;82.80;;;;;;5093741;28;20276;-57
2023/04/05 06:21:16;;;;;;;6.43;4.10;;;13.40;80.40;;;;;;5094410;28;20200;-57
2023/04/05 06:23:43;;;;;;;6.60;3.97;;;14.10;78.30;;;;;;5093862;28;20211;-57
2023/04/05 06:26:17;;;;;;;8.93;3.90;;;14.80;76.20;;;;;;5093362;28;20208;-57
2023/04/05 06:28:46;;;;;;;6.10;4.00;;;15.60;70.70;;;;;;5093661;28;20239;-57
2023/04/05 06:31:14;;;;;;;5.97;3.70;;;15.80;68.60;;;;;;5093683;28;20224;-57
2023/04/05 06:33:41;;;;;;;7.00;4.20;;;16.10;68.40;;;;;;5094379;28;20214;-57
2023/04/05 06:36:10;;;;;;;6.13;4.33;;;16.30;66.90;;;;;;5093831;28;20232;-57
2023/04/05 06:38:36;;;;;;;5.38;4.65;;;16.40;65.80;;;;;;5093892;28;20726;-57
2023/04/05 06:41:03;;;;;;;5.10;4.38;;;16.60;65.50;;;;;;5093683;28;20204;-57
2023/04/05 06:43:31;;;;;;;5.82;4.30;;;17.20;63.70;;;;;;5093178;28;20211;-57
2023/04/05 06:45:58;;;;;;;6.85;4.15;;;17.80;62.50;;;;;;5092895;28;20210;-57
2023/04/05 06:48:27;;;;;;;6.38;4.32;;;17.80;59.60;;;;;;5096508;28;20235;-57
2023/04/05 06:50:57;;;;;;;4.85;4.25;;;17.80;60.40;;;;;;5097617;28;20208;-57
2023/04/05 06:53:26;;;;;;;7.03;4.63;;;17.10;59.40;;;;;;5097509;28;20201;-58
2023/04/05 06:55:53;;;;;;;6.00;4.50;;;17.10;60.60;;;;;;5096617;28;20208;-58
2023/04/05 06:58:20;;;;;;;6.50;4.57;;;17.40;59.60;;;;;;5097347;28;20232;-58
2023/04/05 07:00:47;;;;;;;7.03;4.85;;;17.80;58.70;;;;;;5097198;28;20338;-58
2023/04/05 07:03:14;;;;;;;5.07;4.32;;;17.90;58.80;;;;;;5097189;28;20726;-58
2023/04/05 07:05:41;;;;;;;9.77;6.72;;;18.60;58.40;;;;;;5097234;28;20228;-59
2023/04/05 07:08:08;;;;;;;5.00;4.18;;;19.40;55.00;;;;;;5097668;28;20258;-59
2023/04/05 07:10:40;;;;;;;5.55;3.72;;;20.00;53.40;;;;;;5098281;28;20213;-58
2023/04/05 07:13:06;;;;;;;8.80;4.18;;;20.60;52.40;;;;;;5097602;28;20731;-58
2023/04/05 07:15:34;;;;;;;5.35;4.47;;;20.30;53.10;;;;;;5097383;28;20300;-58
2023/04/05 07:18:00;;;;;;;5.43;3.88;;;20.10;53.60;;;;;;5097585;28;20291;-60
2023/04/05 07:20:27;;;;;;;5.10;4.10;;;20.50;54.00;;;;;;5095750;28;20668;-56
2023/04/05 07:22:54;;;;;;;7.18;4.18;;;21.50;53.40;;;;;;5095709;28;20200;-57
2023/04/05 07:25:21;;;;;;;5.50;4.22;;;22.30;51.40;;;;;;5095111;28;20585;-57
2023/04/05 07:27:49;;;;;;;5.47;4.00;;;22.80;50.00;;;;;;5095899;28;20228;-56
2023/04/05 07:30:16;;;;;;;7.15;5.43;;;23.10;49.20;;;;;;5095372;28;20212;-56
2023/04/05 07:32:42;;;;;;;5.50;3.95;;;23.30;48.40;;;;;;5094912;28;20228;-56
2023/04/05 07:35:09;;;;;;;5.05;4.28;;;23.30;47.30;;;;;;5095026;28;20215;-57
2023/04/05 07:37:37;;;;;;;7.88;4.40;;;23.60;47.10;;;;;;5095008;28;20220;-57
2023/04/05 07:40:06;;;;;;;6.55;5.85;;;24.10;46.40;;;;;;5094979;28;20204;-57
2023/04/05 07:42:33;;;;;;;5.05;3.80;;;24.30;46.00;;;;;;5094612;28;20234;-58
2023/04/05 07:45:01;;;;;;;5.82;4.13;;;24.10;44.80;;;;;;5094777;28;20204;-57
2023/04/05 07:47:28;;;;;;;6.22;3.85;;;22.60;46.30;;;;;;5094923;28;20704;-57
2023/04/05 07:49:54;;;;;;;4.65;4.03;;;22.20;46.90;;;;;;5094756;28;20208;-57
2023/04/05 07:52:21;;;;;;;6.50;4.35;;;22.70;46.50;;;;;;5095061;28;20224;-57
2023/04/05 07:54:48;;;;;;;7.82;4.18;;;22.40;45.50;;;;;;5094575;28;20207;-56
2023/04/05 07:57:17;;;;;;;6.00;5.00;;;21.10;47.30;;;;;;5094755;28;20228;-57
2023/04/05 07:59:44;;;;;;;6.68;3.95;;;20.70;48.40;;;;;;5095017;28;20231;-57
2023/04/05 08:02:12;;;;;;;4.13;3.72;;;21.50;47.20;;;;;;5094764;28;20260;-57
2023/04/05 08:04:38;;;;;;;5.13;3.60;;;22.40;45.70;;;;;;5094708;28;20401;-57
2023/04/05 08:07:05;;;;;;;5.20;3.55;;;22.60;43.60;;;;;;5094151;28;20231;-56
2023/04/05 08:09:32;;;;;;;4.80;3.25;;;21.80;43.70;;;;;;5094667;28;20236;-56
2023/04/05 08:12:01;;;;;;;6.15;3.25;;;20.20;44.70;;;;;;5094369;28;20227;-57
2023/04/05 08:14:28;;;;;;;4.50;3.35;;;18.30;46.70;;;;;;5094437;28;20208;-56
2023/04/05 08:16:55;;;;;;;5.50;3.47;;;17.00;47.70;;;;;;5094493;28;20235;-56
2023/04/05 08:19:23;;;;;;;6.35;3.90;;;15.90;48.40;;;;;;5094526;28;20242;-57
2023/04/05 08:21:50;;;;;;;6.87;3.63;;;15.00;49.90;;;;;;5094421;28;20226;-57
2023/04/05 08:24:17;;;;;;;7.43;4.63;;;14.30;51.00;;;;;;5094104;28;20588;-57
2023/04/05 08:26:44;;;;;;;9.30;5.73;;;13.70;51.40;;;;;;5094033;28;20228;-56
2023/04/05 08:29:11;;;;;;;4.53;2.93;;;13.20;51.50;;;;;;5094215;28;20201;-57
2023/04/05 08:31:38;;;;;;;6.10;3.70;;;12.60;52.30;;;;;;5094367;28;20222;-56
2023/04/05 08:34:07;;;;;;;5.43;3.80;;;12.00;52.40;;;;;;5093792;28;20204;-57
2023/04/05 08:36:35;;;;;;;4.80;3.63;;;11.60;55.40;;;;;;5093502;28;20204;-56
2023/04/05 08:39:02;;;;;;;4.70;3.70;;;11.20;55.90;;;;;;5094124;28;20204;-57
2023/04/05 08:41:35;;;;;;;4.00;3.27;;;10.90;56.20;;;;;;5094043;28;20200;-56
2023/04/05 08:44:04;;;;;;;4.00;3.60;;;10.60;56.70;;;;;;5094077;28;20257;-56
2023/04/05 08:46:32;;;;;;;4.40;3.60;;;10.50;57.90;;;;;;5093409;28;20214;-56
2023/04/05 08:49:00;;;;;;;10.70;7.60;;;10.40;58.90;;;;;;5093614;28;20204;-56
2023/04/05 08:51:27;;;;;;;6.07;3.63;;;10.20;59.10;;;;;;5093931;28;20656;-57
2023/04/05 08:53:55;;;;;;;4.80;3.37;;;10.20;58.80;;;;;;5093535;28;20239;-56
2023/04/05 08:56:26;;;;;;;6.50;3.40;;;10.20;57.90;;;;;;5093462;28;20700;-56
2023/04/05 08:59:01;;;;;;;3.57;2.93;;;10.20;57.40;;;;;;5093329;28;20300;-57
2023/04/05 09:01:30;;;;;;;4.40;3.10;;;10.00;56.80;;;;;;5093403;28;20200;-57
2023/04/05 09:03:58;;;;;;;3.50;3.20;;;9.90;57.70;;;;;;5093242;28;20201;-57
2023/04/05 09:06:27;;;;;;;4.67;3.20;;;9.80;57.70;;;;;;5092880;28;20660;-57
2023/04/05 09:08:57;;;;;;;7.40;3.60;;;9.90;57.50;;;;;;5093114;28;20211;-57
2023/04/05 09:11:24;;;;;;;5.50;3.30;;;10.10;56.40;;;;;;5092132;28;20994;-57
2023/04/05 09:13:51;;;;;;;5.33;3.73;;;10.10;56.40;;;;;;5091699;28;20609;-59
2023/04/05 09:16:18;;;;;;;3.80;3.33;;;10.10;56.90;;;;;;5092759;28;20204;-60
2023/04/05 09:18:45;;;;;;;4.27;3.03;;;10.10;57.30;;;;;;5092893;28;20220;-62
2023/04/05 09:21:12;;;;;;;5.93;3.53;;;10.10;57.40;;;;;;5093309;28;20220;-59
2023/04/05 09:23:51;;;;;;;4.90;3.30;;;10.20;57.60;;;;;;5092845;28;20199;-59
2023/04/05 09:26:21;;;;;;;5.23;3.50;;;10.50;57.20;;;;;;5091914;28;20206;-59
2023/04/05 09:28:48;;;;;;;4.47;3.43;;;10.90;57.70;;;;;;5091915;28;20231;-60
2023/04/05 09:31:31;;;;;;;4.20;3.60;;;11.20;58.20;;;;;;5092001;28;20295;-60
2023/04/05 09:34:00;;;;;;;4.17;3.27;;;11.40;56.30;;;;;;5092139;28;20725;-60
2023/04/05 09:36:28;;;;;;;4.97;3.57;;;11.30;56.50;;;;;;5092029;28;20246;-59
2023/04/05 09:39:05;;;;;;;5.83;5.23;;;10.90;57.00;;;;;;5092409;28;20562;-58
2023/04/05 09:41:34;;;;;;;8.03;5.90;;;10.70;57.90;;;;;;5091989;28;20203;-60
2023/04/05 09:44:00;;;;;;;5.40;3.70;;;10.80;57.80;;;;;;5092655;28;20200;-61
2023/04/05 09:46:32;;;;;;;5.80;3.30;;;11.00;58.50;;;;;;5092934;28;20214;-60
2023/04/05 09:49:00;;;;;;;5.60;3.33;;;10.90;57.30;;;;;;5092934;28;20207;-60
2023/04/05 09:51:33;;;;;;;4.60;3.43;;;10.90;57.50;;;;;;5093231;28;20212;-60
2023/04/05 09:54:02;;;;;;;4.97;3.43;;;10.90;57.90;;;;;;5093390;28;20231;-58
2023/04/05 09:56:31;;;;;;;5.13;3.70;;;10.80;58.20;;;;;;5092100;28;20664;-58
2023/04/05 09:59:05;;;;;;;6.10;3.47;;;10.60;58.80;;;;;;5092615;28;20200;-57
2023/04/05 10:01:32;;;;;;;4.73;3.37;;;10.60;58.20;;;;;;5092740;28;20697;-57
2023/04/05 10:04:01;;;;;;;5.40;3.27;;;10.60;58.40;;;;;;5092388;28;20201;-58
2023/04/05 10:06:38;;;;;;;5.20;3.63;;;10.70;58.50;;;;;;5091804;28;20215;-58
2023/04/05 10:09:05;;;;;;;4.10;3.27;;;10.60;58.70;;;;;;5092622;28;20204;-58
2023/04/05 10:11:33;;;;;;;4.87;3.10;;;10.50;58.80;;;;;;5092542;28;20291;-57
2023/04/05 10:14:03;;;;;;;5.73;3.43;;;10.50;58.50;;;;;;5092059;28;20254;-57
2023/04/05 10:16:33;;;;;;;4.93;3.37;;;10.40;58.90;;;;;;5092265;28;20276;-57
2023/04/05 10:19:01;;;;;;;6.33;3.30;;;10.30;58.80;;;;;;5093281;28;20208;-61
2023/04/05 10:21:30;;;;;;;4.80;3.37;;;10.20;59.40;;;;;;5093193;28;20211;-58
2023/04/05 10:24:06;;;;;;;4.97;4.10;;;10.20;58.80;;;;;;5096752;28;20199;-57
2023/04/05 10:26:41;;;;;;;5.10;3.20;;;10.30;59.20;;;;;;5096131;28;20293;-58
2023/04/05 10:29:17;;;;;;;11.07;5.37;;;10.50;59.10;;;;;;5096680;28;20284;-65
2023/04/05 10:31:51;;;;;;;4.10;3.67;;;10.60;58.90;;;;;;5097139;28;20210;-58
2023/04/05 10:34:26;;;;;;;4.23;3.47;;;10.80;58.60;;;;;;5096316;28;20761;-58
2023/04/05 10:36:59;;;;;;;4.07;3.50;;;10.90;58.50;;;;;;5095980;28;20238;-57
2023/04/05 10:39:28;;;;;;;4.83;3.43;;;10.80;58.60;;;;;;5096118;28;20211;-58
2023/04/05 10:42:00;;;;;;;4.83;3.73;;;10.90;58.70;;;;;;5095765;28;20207;-57
2023/04/05 10:44:32;;;;;;;4.43;3.20;;;11.00;58.50;;;;;;5096056;28;20204;-58
2023/04/05 10:47:00;;;;;;;5.93;3.70;;;10.90;58.30;;;;;;5095856;28;20252;-57
2023/04/05 10:49:34;;;;;;;6.63;3.77;;;10.80;57.80;;;;;;5096001;28;20292;-57
2023/04/05 10:52:02;;;;;;;4.53;3.40;;;10.90;57.60;;;;;;5095934;28;20399;-57
2023/04/05 10:54:32;;;;;;;4.00;3.30;;;10.90;58.40;;;;;;5096243;28;20604;-57
2023/04/05 10:57:01;;;;;;;4.20;3.23;;;11.00;58.00;;;;;;5095463;28;20605;-58
2023/04/05 10:59:30;;;;;;;4.73;3.37;;;11.10;57.00;;;;;;5096053;28;20254;-56
2023/04/05 11:01:57;;;;;;;5.67;3.60;;;11.10;56.10;;;;;;5095813;28;20253;-57
2023/04/05 11:04:24;;;;;;;3.30;2.97;;;11.10;57.50;;;;;;5096253;28;20648;-57
2023/04/05 11:07:12;;;;;;;4.00;3.60;;;11.10;57.30;;;;;;5095441;28;20225;-57
2023/04/05 11:09:49;;;;;;;3.53;2.80;;;11.20;56.70;;;;;;5095781;28;20215;-57
2023/04/05 11:12:16;;;;;;;4.20;3.10;;;11.40;56.70;;;;;;5095557;28;20227;-57
2023/04/05 11:14:45;;;;;;;5.97;3.20;;;11.40;56.30;;;;;;5095431;28;20310;-56
2023/04/05 11:17:24;;;;;;;4.50;3.40;;;11.30;55.60;;;;;;5095230;28;20323;-57
2023/04/05 11:19:52;;;;;;;5.03;3.03;;;11.20;55.60;;;;;;5095591;28;20200;-57
2023/04/05 11:22:27;;;;;;;3.83;3.07;;;11.20;56.30;;;;;;5095544;28;20197;-57
2023/04/05 11:24:56;;;;;;;4.33;3.17;;;11.30;55.60;;;;;;5095252;28;20631;-57
2023/04/05 11:27:26;;;;;;;4.40;3.47;;;11.30;55.60;;;;;;5095089;28;20323;-57
2023/04/05 11:29:55;;;;;;;4.23;3.10;;;11.20;56.70;;;;;;5095886;28;20212;-57
2023/04/05 11:32:23;;;;;;;4.97;3.13;;;11.40;55.70;;;;;;5094873;28;20211;-57
2023/04/05 11:35:06;;;;;;;4.30;3.20;;;11.60;55.80;;;;;;5095889;28;20235;-57
2023/04/05 11:37:55;;;;;;;4.40;3.07;;;11.70;56.00;;;;;;5095432;28;20220;-57
2023/04/05 11:40:27;;;;;;;4.60;3.23;;;12.00;56.20;;;;;;5090825;28;20865;-57
2023/04/05 11:43:04;;;;;;;5.20;2.90;;;12.10;56.00;;;;;;5095317;28;20200;-57
2023/04/05 11:45:34;;;;;;;6.57;2.90;;;12.10;54.40;;;;;;5095306;28;20231;-58
2023/04/05 11:48:04;;;;;;;3.83;2.97;;;12.00;55.00;;;;;;5094919;28;20240;-58
2023/04/05 11:50:32;;;;;;;3.87;3.10;;;11.90;55.30;;;;;;5094825;28;20672;-58
2023/04/05 11:53:09;;;;;;;3.33;2.97;;;11.70;55.40;;;;;;5094655;28;20228;-58
2023/04/05 11:55:36;;;;;;;6.40;3.30;;;11.60;55.80;;;;;;5094999;28;20200;-57
2023/04/05 11:58:10;;;;;;;6.43;3.23;;;11.60;55.60;;;;;;5094956;28;20258;-58
2023/04/05 12:00:39;;;;;;;5.30;3.20;;;11.70;55.40;;;;;;5095205;28;20209;-58
2023/04/05 12:03:05;;;;;;;4.27;3.23;;;11.70;55.40;;;;;;5094762;28;20556;-58
2023/04/05 12:05:48;;;;;;;6.00;3.27;;;11.70;55.60;;;;;;5094823;28;20204;-58
2023/04/05 12:08:15;;;;;;;5.63;3.27;;;11.80;55.90;;;;;;5094768;28;20242;-58
2023/04/05 12:10:42;;;;;;;5.30;3.70;;;11.90;55.60;;;;;;5094694;28;20603;-58
2023/04/05 12:13:09;;;;;;;5.73;3.20;;;11.90;55.60;;;;;;5094560;28;20261;-58
2023/04/05 12:15:40;;;;;;;6.03;3.37;;;12.00;55.80;;;;;;5094354;28;20251;-58
2023/04/05 12:18:14;;;;;;;4.10;3.10;;;12.30;54.60;;;;;;5094468;28;20706;-58
2023/04/05 12:20:41;;;;;;;6.07;3.30;;;12.40;54.70;;;;;;5094661;28;20200;-57
2023/04/05 12:23:08;;;;;;;4.00;3.10;;;12.50;54.90;;;;;;5094814;28;20200;-56
2023/04/05 12:25:37;;;;;;;5.03;3.00;;;12.50;54.70;;;;;;5094366;28;20226;-57
2023/04/05 12:28:07;;;;;;;4.37;3.20;;;12.50;54.80;;;;;;5094112;28;20251;-57
2023/04/05 12:30:37;;;;;;;4.17;3.30;;;12.40;54.00;;;;;;5094482;28;20660;-57
2023/04/05 12:33:09;;;;;;;4.40;3.30;;;12.20;54.10;;;;;;5094471;28;20220;-57
2023/04/05 12:35:36;;;;;;;4.47;3.30;;;12.10;54.60;;;;;;5094265;28;20200;-57
2023/04/05 12:38:04;;;;;;;5.17;3.03;;;11.90;55.20;;;;;;5093545;28;20769;-57
2023/04/05 12:40:31;;;;;;;3.80;2.80;;;11.80;54.70;;;;;;5093724;28;20216;-57
2023/04/05 12:43:03;;;;;;;3.13;2.73;;;11.90;54.00;;;;;;5094055;28;20204;-58
2023/04/05 12:45:38;;;;;;;3.47;2.90;;;11.90;55.00;;;;;;5093302;28;20652;-57
2023/04/05 12:48:10;;;;;;;3.77;2.90;;;11.90;55.10;;;;;;5094562;28;20289;-58
2023/04/05 12:50:42;;;;;;;3.57;3.00;;;12.20;54.20;;;;;;5094213;28;20291;-58
2023/04/05 12:53:16;;;;;;;4.60;3.20;;;12.40;53.90;;;;;;5094371;28;20220;-57
2023/04/05 12:55:48;;;;;;;4.33;2.70;;;12.50;54.30;;;;;;5093998;28;20204;-58
2023/04/05 12:58:16;;;;;;;4.57;2.93;;;12.60;54.10;;;;;;5094001;28;20300;-59
2023/04/05 13:00:44;;;;;;;3.70;3.30;;;12.60;53.80;;;;;;5093830;28;20208;-58